createdAt,value
2018-04-26T00:01:27.614Z,17.00
2018-04-26T00:03:55.078Z,17.00
2018-04-26T00:06:22.534Z,17.00
2018-04-26T00:08:50.015Z,17.10
2018-04-26T00:11:17.446Z,17.10
2018-04-26T00:13:44.903Z,17.10
2018-04-26T00:16:12.354Z,17.20
2018-04-26T00:18:40.330Z,17.20
2018-04-26T00:21:07.776Z,17.20
2018-04-26T00:23:35.234Z,17.30
2018-04-26T00:26:02.694Z,17.30
2018-04-26T00:28:30.141Z,17.30
2018-04-26T00:30:57.607Z,17.20
2018-04-26T00:33:25.050Z,17.20
2018-04-26T00:35:52.500Z,17.20
2018-04-26T00:38:19.947Z,17.20
2018-04-26T00:40:48.167Z,17.20
2018-04-26T00:43:15.602Z,17.20
2018-04-26T00:45:43.059Z,17.20
2018-04-26T00:48:10.505Z,17.10
2018-04-26T00:50:37.974Z,17.00
2018-04-26T00:53:05.427Z,16.90
2018-04-26T00:55:32.880Z,17.00
2018-04-26T00:58:00.342Z,17.00
2018-04-26T01:00:27.785Z,17.00
2018-04-26T01:02:55.260Z,17.10
2018-04-26T01:05:22.740Z,17.00
2018-04-26T01:07:50.203Z,16.90
2018-04-26T01:10:17.699Z,16.90
2018-04-26T01:12:45.940Z,16.90
2018-04-26T01:15:13.441Z,16.80
2018-04-26T01:17:41.671Z,16.90
2018-04-26T01:20:09.238Z,16.80
2018-04-26T01:22:36.624Z,16.90
2018-04-26T01:25:04.856Z,16.80
2018-04-26T01:27:32.349Z,16.80
2018-04-26T01:30:00.619Z,16.70
2018-04-26T01:32:28.865Z,16.70
2018-04-26T01:34:56.372Z,16.70
2018-04-26T01:40:30.778Z,16.70
2018-04-26T01:42:58.228Z,16.60
2018-04-26T01:45:25.711Z,16.60
2018-04-26T01:47:53.963Z,16.50
2018-04-26T01:50:22.346Z,16.50
2018-04-26T01:52:49.794Z,16.40
2018-04-26T01:55:17.279Z,16.40
2018-04-26T01:57:45.512Z,16.30
2018-04-26T02:00:12.977Z,16.20
2018-04-26T02:02:40.435Z,16.30
2018-04-26T02:05:08.676Z,16.50
2018-04-26T02:07:36.168Z,16.40
2018-04-26T02:10:03.652Z,16.60
2018-04-26T02:12:31.132Z,16.40
2018-04-26T02:14:58.596Z,16.30
2018-04-26T02:17:26.077Z,16.30
2018-04-26T02:19:53.544Z,16.30
2018-04-26T02:22:21.013Z,16.20
2018-04-26T02:24:48.475Z,16.20
2018-04-26T02:27:16.102Z,16.10
2018-04-26T02:29:43.749Z,16.10
2018-04-26T02:32:11.216Z,16.10
2018-04-26T02:34:39.602Z,16.00
2018-04-26T02:37:07.099Z,16.00
2018-04-26T02:39:34.568Z,16.00
2018-04-26T02:42:02.835Z,15.90
2018-04-26T02:44:30.336Z,15.90
2018-04-26T02:47:01.161Z,16.00
2018-04-26T02:49:28.627Z,16.00
2018-04-26T02:51:56.118Z,16.00
2018-04-26T02:54:23.588Z,16.00
2018-04-26T02:56:51.073Z,16.10
2018-04-26T02:59:19.304Z,15.90
2018-04-26T03:01:46.783Z,16.00
2018-04-26T03:04:17.985Z,15.90
2018-04-26T03:06:45.479Z,15.90
2018-04-26T03:09:12.969Z,15.80
2018-04-26T03:11:41.207Z,15.70
2018-04-26T03:14:08.768Z,15.70
2018-04-26T03:16:36.251Z,15.60
2018-04-26T03:19:04.542Z,15.60
2018-04-26T03:21:32.019Z,15.50
2018-04-26T03:23:59.499Z,15.40
2018-04-26T03:26:26.980Z,15.50
2018-04-26T03:28:55.391Z,15.40
2018-04-26T03:31:22.874Z,15.30
2018-04-26T03:33:50.400Z,15.20
2018-04-26T03:36:18.655Z,15.10
2018-04-26T03:38:46.120Z,15.10
2018-04-26T03:41:13.625Z,15.10
2018-04-26T03:43:41.156Z,15.10
2018-04-26T03:46:08.726Z,14.90
2018-04-26T03:48:36.132Z,14.80
2018-04-26T03:51:03.626Z,14.80
2018-04-26T03:53:31.107Z,14.70
2018-04-26T03:55:58.604Z,14.60
2018-04-26T03:58:26.072Z,14.50
2018-04-26T04:01:05.488Z,14.50
2018-04-26T04:03:45.777Z,14.50
2018-04-26T04:06:14.807Z,14.60
2018-04-26T04:08:42.291Z,14.50
2018-04-26T04:11:09.745Z,14.60
2018-04-26T04:13:37.203Z,14.70
2018-04-26T04:16:04.716Z,14.60
2018-04-26T04:18:32.232Z,14.60
2018-04-26T04:20:59.698Z,14.60
2018-04-26T04:23:27.170Z,14.50
2018-04-26T04:25:55.392Z,14.60
2018-04-26T04:28:22.866Z,14.50
2018-04-26T04:30:50.349Z,14.60
2018-04-26T04:33:17.838Z,14.70
2018-04-26T04:35:45.290Z,14.70
2018-04-26T04:38:15.759Z,14.90
2018-04-26T04:40:43.249Z,14.90
2018-04-26T04:43:10.746Z,14.90
2018-04-26T04:45:38.196Z,14.90
2018-04-26T04:48:05.643Z,14.80
2018-04-26T04:50:33.097Z,14.80
2018-04-26T04:53:01.319Z,14.80
2018-04-26T04:55:28.807Z,14.80
2018-04-26T04:57:56.267Z,14.90
2018-04-26T05:00:24.531Z,14.90
2018-04-26T05:02:51.987Z,14.80
2018-04-26T05:05:19.471Z,14.90
2018-04-26T05:07:46.964Z,15.00
2018-04-26T05:10:15.323Z,14.90
2018-04-26T05:12:46.446Z,14.70
2018-04-26T05:15:14.933Z,14.70
2018-04-26T05:17:43.178Z,14.80
2018-04-26T05:20:10.661Z,14.70
2018-04-26T05:22:38.924Z,14.50
2018-04-26T05:25:11.188Z,14.40
2018-04-26T05:27:42.761Z,14.40
2018-04-26T05:30:10.386Z,14.30
2018-04-26T05:32:38.729Z,14.30
2018-04-26T05:35:09.347Z,14.20
2018-04-26T05:37:37.027Z,14.20
2018-04-26T05:40:04.725Z,14.20
2018-04-26T05:42:32.347Z,14.20
2018-04-26T05:45:00.744Z,13.90
2018-04-26T05:47:28.475Z,13.80
2018-04-26T05:49:56.092Z,13.70
2018-04-26T05:52:23.683Z,13.50
2018-04-26T05:54:52.123Z,13.20
2018-04-26T05:57:23.202Z,13.00
2018-04-26T05:59:50.758Z,12.90
2018-04-26T06:02:18.442Z,12.70
2018-04-26T06:04:46.016Z,12.80
2018-04-26T06:07:13.640Z,12.80
2018-04-26T06:09:41.298Z,12.70
2018-04-26T06:12:09.001Z,12.70
2018-04-26T06:14:36.508Z,12.60
2018-04-26T06:17:04.846Z,12.60
2018-04-26T06:19:32.413Z,12.50
2018-04-26T06:21:59.957Z,12.40
2018-04-26T06:24:27.587Z,12.50
2018-04-26T06:26:55.196Z,12.50
2018-04-26T06:29:23.817Z,12.40
2018-04-26T06:31:51.450Z,12.40
2018-04-26T06:34:19.776Z,12.30
2018-04-26T06:36:47.342Z,12.30
2018-04-26T06:39:14.919Z,12.30
2018-04-26T06:41:42.552Z,12.30
2018-04-26T06:44:10.145Z,12.30
2018-04-26T06:46:37.673Z,12.40
2018-04-26T06:49:05.350Z,12.40
2018-04-26T06:51:33.752Z,12.50
2018-04-26T06:54:01.497Z,12.50
2018-04-26T06:56:29.032Z,12.50
2018-04-26T06:58:56.685Z,12.40
2018-04-26T07:01:24.455Z,12.40
2018-04-26T07:03:52.119Z,13.50
2018-04-26T07:06:19.739Z,12.40
2018-04-26T07:08:47.333Z,12.30
2018-04-26T07:11:15.753Z,12.20
2018-04-26T07:13:43.335Z,12.10
2018-04-26T07:16:10.896Z,12.20
2018-04-26T07:18:38.397Z,12.10
2018-04-26T07:21:05.908Z,12.00
2018-04-26T07:23:33.375Z,12.00
2018-04-26T07:26:00.860Z,12.10
2018-04-26T07:28:28.320Z,12.00
2018-04-26T07:30:55.799Z,12.00
2018-04-26T07:33:23.281Z,12.00
2018-04-26T07:35:50.797Z,12.00
2018-04-26T07:38:20.171Z,11.90
2018-04-26T07:40:47.690Z,12.10
2018-04-26T07:43:15.180Z,11.90
2018-04-26T07:45:42.653Z,11.90
2018-04-26T07:48:10.903Z,12.00
2018-04-26T07:50:38.396Z,12.00
2018-04-26T07:53:05.945Z,12.00
2018-04-26T07:55:33.400Z,12.00
2018-04-26T07:58:00.872Z,12.00
2018-04-26T08:00:28.383Z,12.00
2018-04-26T08:02:55.871Z,12.00
2018-04-26T08:05:24.104Z,12.00
2018-04-26T08:07:51.614Z,12.40
2018-04-26T08:10:19.079Z,12.10
2018-04-26T08:12:46.564Z,12.20
2018-04-26T08:15:14.041Z,12.20
2018-04-26T08:17:44.627Z,12.10
2018-04-26T08:20:12.126Z,12.10
2018-04-26T08:22:39.612Z,12.00
2018-04-26T08:25:07.150Z,12.00
2018-04-26T08:27:34.582Z,12.10
2018-04-26T08:30:02.059Z,12.20
2018-04-26T08:32:29.518Z,12.30
2018-04-26T08:34:57.020Z,12.40
2018-04-26T08:37:24.489Z,12.20
2018-04-26T08:39:52.322Z,12.30
2018-04-26T08:42:20.598Z,12.40
2018-04-26T08:44:48.815Z,12.60
2018-04-26T08:47:16.331Z,12.50
2018-04-26T08:49:44.548Z,12.70
2018-04-26T08:52:12.017Z,12.70
2018-04-26T08:54:39.508Z,12.80
2018-04-26T08:57:06.959Z,13.00
2018-04-26T08:59:34.411Z,13.00
2018-04-26T09:02:01.896Z,13.10
2018-04-26T09:04:30.120Z,13.20
2018-04-26T09:06:58.367Z,13.40
2018-04-26T09:09:25.840Z,13.30
2018-04-26T09:11:53.314Z,13.40
2018-04-26T09:14:20.816Z,13.40
2018-04-26T09:16:54.503Z,13.40
2018-04-26T09:19:21.980Z,13.40
2018-04-26T09:21:49.508Z,13.40
2018-04-26T09:24:16.899Z,13.50
2018-04-26T09:26:44.358Z,13.50
2018-04-26T09:29:12.714Z,13.70
2018-04-26T09:31:40.939Z,13.80
2018-04-26T09:34:08.417Z,13.80
2018-04-26T09:36:35.896Z,13.90
2018-04-26T09:39:03.398Z,14.00
2018-04-26T09:41:30.867Z,14.00
2018-04-26T09:43:58.320Z,14.10
2018-04-26T09:46:25.808Z,14.30
2018-04-26T09:48:53.263Z,14.30
2018-04-26T09:51:20.735Z,14.40
2018-04-26T09:53:48.209Z,14.50
2018-04-26T09:56:15.712Z,14.60
2018-04-26T09:58:43.168Z,14.40
2018-04-26T10:01:10.643Z,14.30
2018-04-26T10:03:38.095Z,14.20
2018-04-26T10:09:14.796Z,13.70
2018-04-26T10:11:42.244Z,13.50
2018-04-26T10:14:09.703Z,13.60
2018-04-26T10:16:37.148Z,13.70
2018-04-26T10:19:04.595Z,13.60
2018-04-26T10:21:32.045Z,13.30
2018-04-26T10:23:59.505Z,13.50
2018-04-26T10:26:26.979Z,13.70
2018-04-26T10:28:54.427Z,13.80
2018-04-26T10:31:21.880Z,13.70
2018-04-26T10:33:49.335Z,13.70
2018-04-26T10:36:16.789Z,13.60
2018-04-26T10:38:44.255Z,13.40
2018-04-26T10:41:11.724Z,13.40
2018-04-26T10:43:39.184Z,13.40
2018-04-26T10:46:06.644Z,13.30
2018-04-26T10:48:34.107Z,13.20
2018-04-26T10:51:01.555Z,13.00
2018-04-26T10:53:29.019Z,13.00
2018-04-26T10:55:56.459Z,13.20
2018-04-26T10:58:23.907Z,13.20
2018-04-26T11:00:51.358Z,13.30
2018-04-26T11:03:18.809Z,13.30
2018-04-26T11:05:46.275Z,13.40
2018-04-26T11:08:14.227Z,13.30
2018-04-26T11:10:41.668Z,13.20
2018-04-26T11:13:09.128Z,13.10
2018-04-26T11:15:36.633Z,13.20
2018-04-26T11:18:04.045Z,13.20
2018-04-26T11:20:31.481Z,13.20
2018-04-26T11:22:59.706Z,13.20
2018-04-26T11:25:27.153Z,13.20
2018-04-26T11:27:54.613Z,13.10
2018-04-26T11:30:22.064Z,13.10
2018-04-26T11:32:49.532Z,13.10
2018-04-26T11:35:16.971Z,13.10
2018-04-26T11:37:44.424Z,13.10
2018-04-26T11:40:11.939Z,13.10
2018-04-26T11:42:39.331Z,13.20
2018-04-26T11:45:07.748Z,13.10
2018-04-26T11:47:35.199Z,13.10
2018-04-26T11:50:02.656Z,13.20
2018-04-26T11:52:30.120Z,13.20
2018-04-26T11:54:57.565Z,13.30
2018-04-26T11:57:25.024Z,13.30
2018-04-26T11:59:52.484Z,13.20
2018-04-26T12:02:19.985Z,13.20
2018-04-26T12:04:47.414Z,13.20
2018-04-26T12:07:14.868Z,13.10
2018-04-26T12:09:42.307Z,13.20
2018-04-26T12:12:09.764Z,13.20
2018-04-26T12:14:37.233Z,13.20
2018-04-26T12:17:04.699Z,13.20
2018-04-26T12:19:32.155Z,13.30
2018-04-26T12:21:59.630Z,13.30
2018-04-26T12:24:27.076Z,13.30
2018-04-26T12:26:54.541Z,13.40
2018-04-26T12:29:22.031Z,13.30
2018-04-26T12:31:49.466Z,13.40
2018-04-26T12:34:17.678Z,13.70
2018-04-26T12:36:45.135Z,13.70
2018-04-26T12:39:12.586Z,13.90
2018-04-26T12:41:40.043Z,13.80
2018-04-26T12:44:07.531Z,13.80
2018-04-26T12:46:34.991Z,13.70
2018-04-26T12:49:02.440Z,13.60
2018-04-26T12:51:29.892Z,13.50
2018-04-26T12:53:57.335Z,13.60
2018-04-26T12:56:24.830Z,13.70
2018-04-26T12:58:52.316Z,13.80
2018-04-26T13:01:20.526Z,13.90
2018-04-26T13:03:47.975Z,13.80
2018-04-26T13:06:15.425Z,13.90
2018-04-26T13:08:42.883Z,13.80
2018-04-26T13:11:10.331Z,13.90
2018-04-26T13:13:37.785Z,13.90
2018-04-26T13:16:05.239Z,14.00
2018-04-26T13:18:33.464Z,14.00
2018-04-26T13:21:00.926Z,14.00
2018-04-26T13:23:28.380Z,14.00
2018-04-26T13:25:55.831Z,13.90
2018-04-26T13:28:23.267Z,13.90
2018-04-26T13:30:50.736Z,13.80
2018-04-26T13:33:18.216Z,13.80
2018-04-26T13:35:45.679Z,13.70
2018-04-26T13:38:13.141Z,13.80
2018-04-26T13:40:40.611Z,13.80
2018-04-26T13:43:08.081Z,13.90
2018-04-26T13:45:35.536Z,13.90
2018-04-26T13:48:02.986Z,13.90
2018-04-26T13:50:31.206Z,14.20
2018-04-26T13:52:59.463Z,14.10
2018-04-26T13:55:26.904Z,14.10
2018-04-26T13:57:54.360Z,14.20
2018-04-26T14:00:21.803Z,14.20
2018-04-26T14:02:50.024Z,14.30
2018-04-26T14:05:18.244Z,14.10
2018-04-26T14:07:45.712Z,14.00
2018-04-26T14:10:13.168Z,14.10
2018-04-26T14:12:41.409Z,14.10
2018-04-26T14:15:08.852Z,14.00
2018-04-26T14:17:36.392Z,14.20
2018-04-26T14:20:03.764Z,14.10
2018-04-26T14:22:31.215Z,14.10
2018-04-26T14:24:58.671Z,14.10
2018-04-26T14:27:26.115Z,14.10
2018-04-26T14:29:53.572Z,14.00
2018-04-26T14:32:21.014Z,14.10
2018-04-26T14:34:48.475Z,14.10
2018-04-26T14:37:16.064Z,14.10
2018-04-26T14:39:43.383Z,14.20
2018-04-26T14:42:13.968Z,14.20
2018-04-26T14:44:41.430Z,14.20
2018-04-26T14:47:08.880Z,14.20
2018-04-26T14:49:36.366Z,14.20
2018-04-26T14:52:04.597Z,14.20
2018-04-26T14:54:32.047Z,14.20
2018-04-26T14:56:59.548Z,14.30
2018-04-26T14:59:26.990Z,14.30
2018-04-26T15:01:54.447Z,14.40
2018-04-26T15:04:21.891Z,14.40
2018-04-26T15:06:49.360Z,14.40
2018-04-26T15:09:16.825Z,14.30
2018-04-26T15:11:44.276Z,14.30
2018-04-26T15:14:11.740Z,14.30
2018-04-26T15:16:39.960Z,14.20
2018-04-26T15:19:07.444Z,14.20
2018-04-26T15:21:34.891Z,14.10
2018-04-26T15:24:02.345Z,14.00
2018-04-26T15:26:33.061Z,14.10
2018-04-26T15:29:00.531Z,14.00
2018-04-26T15:31:27.971Z,14.00
2018-04-26T15:33:55.436Z,14.10
2018-04-26T15:36:22.899Z,14.00
2018-04-26T15:38:50.397Z,14.00
2018-04-26T15:41:17.975Z,14.00
2018-04-26T15:43:45.459Z,14.20
2018-04-26T15:46:12.918Z,14.30
2018-04-26T15:48:40.378Z,14.40
2018-04-26T15:51:07.831Z,14.40
2018-04-26T15:54:00.068Z,14.50
2018-04-26T15:56:53.839Z,14.50
2018-04-26T16:02:57.700Z,14.60
2018-04-26T16:05:36.960Z,14.70
2018-04-26T16:08:22.909Z,14.70
2018-04-26T16:11:08.036Z,14.60
2018-04-26T16:13:53.163Z,14.70
2018-04-26T16:16:38.330Z,14.70
2018-04-26T16:19:23.556Z,14.60
2018-04-26T16:22:08.680Z,14.60
2018-04-26T16:24:54.858Z,14.50
2018-04-26T16:27:44.125Z,14.60
2018-04-26T16:30:23.493Z,14.50
2018-04-26T16:36:05.953Z,14.60
2018-04-26T16:38:45.489Z,14.60
2018-04-26T16:41:13.731Z,14.30
2018-04-26T16:43:41.202Z,14.20
2018-04-26T16:46:08.672Z,14.30
2018-04-26T16:48:36.924Z,14.60
2018-04-26T16:51:04.393Z,14.50
2018-04-26T16:53:31.846Z,14.60
2018-04-26T16:56:06.672Z,14.60
2018-04-26T16:58:37.652Z,14.80
2018-04-26T17:01:05.110Z,14.60
2018-04-26T17:03:32.566Z,14.60
2018-04-26T17:06:00.028Z,14.60
2018-04-26T17:08:30.396Z,14.60
2018-04-26T17:10:58.672Z,14.70
2018-04-26T17:13:26.135Z,14.70
2018-04-26T17:15:53.597Z,14.70
2018-04-26T17:18:21.052Z,14.80
2018-04-26T17:20:48.528Z,14.60
2018-04-26T17:23:22.179Z,14.50
2018-04-26T17:25:49.651Z,14.40
2018-04-26T17:28:17.406Z,14.40
2018-04-26T17:30:44.860Z,14.40
2018-04-26T17:33:12.361Z,14.40
2018-04-26T17:35:40.603Z,14.40
2018-04-26T17:38:11.335Z,14.40
2018-04-26T17:40:38.783Z,14.30
2018-04-26T17:43:06.236Z,14.30
2018-04-26T17:45:33.782Z,14.30
2018-04-26T17:48:04.123Z,14.30
2018-04-26T17:50:31.559Z,14.30
2018-04-26T17:52:59.044Z,14.30
2018-04-26T17:55:26.519Z,14.30
2018-04-26T17:57:53.992Z,14.20
2018-04-26T18:00:22.261Z,14.20
2018-04-26T18:02:50.495Z,14.20
2018-04-26T18:05:17.944Z,14.20
2018-04-26T18:07:45.407Z,14.40
2018-04-26T18:10:12.869Z,14.40
2018-04-26T18:12:40.357Z,14.40
2018-04-26T18:15:07.807Z,14.30
2018-04-26T18:17:35.261Z,14.10
2018-04-26T18:20:08.570Z,14.00
2018-04-26T18:22:30.169Z,14.00
2018-04-26T18:24:57.629Z,13.90
2018-04-26T18:27:25.094Z,13.80
2018-04-26T18:29:52.563Z,13.70
2018-04-26T18:32:20.782Z,13.60
2018-04-26T18:34:55.663Z,13.50
2018-04-26T18:37:23.096Z,13.60
2018-04-26T18:39:50.617Z,13.60
2018-04-26T18:42:18.160Z,13.50
2018-04-26T18:44:45.633Z,13.60
2018-04-26T18:47:13.095Z,13.30
2018-04-26T18:49:40.558Z,13.40
2018-04-26T18:52:08.016Z,13.30
2018-04-26T18:54:35.476Z,13.30
2018-04-26T18:57:03.002Z,13.30
2018-04-26T18:59:30.395Z,13.20
2018-04-26T19:02:01.647Z,13.10
2018-04-26T19:04:29.111Z,13.00
2018-04-26T19:06:56.581Z,13.00
2018-04-26T19:09:24.039Z,13.10
2018-04-26T19:11:51.495Z,13.00
2018-04-26T19:14:18.969Z,13.00
2018-04-26T19:16:47.189Z,13.00
2018-04-26T19:19:14.654Z,13.00
2018-04-26T19:21:42.105Z,13.10
2018-04-26T19:24:11.831Z,13.10
2018-04-26T19:26:43.429Z,13.10
2018-04-26T19:29:10.860Z,13.10
2018-04-26T19:31:38.319Z,13.00
2018-04-26T19:34:09.421Z,13.00
2018-04-26T19:36:36.859Z,13.00
2018-04-26T19:39:11.594Z,13.00
2018-04-26T19:41:39.038Z,13.00
2018-04-26T19:44:07.429Z,13.00
2018-04-26T19:46:41.737Z,13.00
2018-04-26T19:49:12.607Z,13.00
2018-04-26T19:51:40.054Z,13.00
2018-04-26T19:54:07.518Z,12.90
2018-04-26T19:56:36.859Z,12.90
2018-04-26T19:59:05.079Z,12.80
2018-04-26T20:01:32.533Z,12.80
2018-04-26T20:03:59.979Z,12.80
2018-04-26T20:06:30.617Z,12.70
2018-04-26T20:08:58.088Z,12.70
2018-04-26T20:11:28.986Z,12.80
2018-04-26T20:13:57.205Z,12.80
2018-04-26T20:16:25.422Z,12.60
2018-04-26T20:18:53.656Z,12.50
2018-04-26T20:21:21.109Z,12.50
2018-04-26T20:23:54.337Z,12.50
2018-04-26T20:26:21.787Z,12.50
2018-04-26T20:28:49.254Z,12.50
2018-04-26T20:31:17.469Z,12.40
2018-04-26T20:33:44.934Z,12.40
2018-04-26T20:36:13.171Z,12.30
2018-04-26T20:38:40.778Z,12.30
2018-04-26T20:41:08.215Z,12.30
2018-04-26T20:43:35.676Z,12.20
2018-04-26T20:46:03.116Z,12.20
2018-04-26T20:48:41.312Z,12.20
2018-04-26T20:51:09.521Z,11.90
2018-04-26T20:53:36.968Z,11.90
2018-04-26T20:56:04.446Z,11.80
2018-04-26T20:58:31.897Z,11.80
2018-04-26T21:00:59.346Z,11.80
2018-04-26T21:03:26.795Z,11.90
2018-04-26T21:05:54.238Z,11.80
2018-04-26T21:08:21.692Z,11.80
2018-04-26T21:10:49.899Z,11.90
2018-04-26T21:13:17.358Z,11.90
2018-04-26T21:15:44.810Z,11.80
2018-04-26T21:18:12.266Z,11.80
2018-04-26T21:20:39.719Z,11.60
2018-04-26T21:23:07.175Z,11.60
2018-04-26T21:25:34.683Z,11.60
2018-04-26T21:28:02.947Z,11.50
2018-04-26T21:30:30.417Z,11.50
2018-04-26T21:32:58.635Z,11.40
2018-04-26T21:35:26.108Z,11.40
2018-04-26T21:37:53.561Z,11.30
2018-04-26T21:40:21.007Z,11.20
2018-04-26T21:42:48.455Z,11.10
2018-04-26T21:45:15.912Z,11.10
2018-04-26T21:47:43.360Z,11.10
2018-04-26T21:50:16.434Z,11.10
2018-04-26T21:52:50.515Z,11.10
2018-04-26T21:55:23.749Z,11.10
2018-04-26T21:57:56.970Z,11.10
2018-04-26T22:00:30.152Z,11.00
2018-04-26T22:02:57.116Z,11.20
2018-04-26T22:05:35.272Z,11.10
2018-04-26T22:08:03.484Z,10.90
2018-04-26T22:10:30.940Z,10.80
2018-04-26T22:12:58.396Z,10.80
2018-04-26T22:15:25.851Z,10.80
2018-04-26T22:17:53.300Z,10.80
2018-04-26T22:20:20.748Z,10.80
2018-04-26T22:22:48.199Z,10.80
2018-04-26T22:25:15.663Z,10.70
2018-04-26T22:27:43.879Z,10.90
2018-04-26T22:30:11.335Z,10.80
2018-04-26T22:32:38.779Z,10.90
2018-04-26T22:35:06.232Z,10.90
2018-04-26T22:37:33.674Z,10.90
2018-04-26T22:40:01.129Z,10.90
2018-04-26T22:42:28.614Z,10.80
2018-04-26T22:44:56.056Z,10.50
2018-04-26T22:47:23.562Z,10.50
2018-04-26T22:49:50.962Z,10.50
2018-04-26T22:52:18.403Z,10.50
2018-04-26T22:54:45.860Z,10.50
2018-04-26T22:57:13.320Z,10.50
2018-04-26T22:59:40.772Z,10.50
2018-04-26T23:02:08.223Z,10.40
2018-04-26T23:04:35.684Z,10.40
2018-04-26T23:07:03.135Z,10.40
2018-04-26T23:09:30.593Z,10.40
2018-04-26T23:11:58.044Z,10.40
2018-04-26T23:14:25.506Z,10.40
2018-04-26T23:16:52.967Z,10.40
2018-04-26T23:19:20.420Z,10.30
2018-04-26T23:21:47.864Z,9.90
2018-04-26T23:24:16.076Z,9.80
2018-04-26T23:26:43.528Z,9.70
2018-04-26T23:29:10.976Z,9.70
2018-04-26T23:31:38.432Z,9.40
2018-04-26T23:34:05.880Z,9.40
2018-04-26T23:36:33.338Z,9.30
2018-04-26T23:39:00.784Z,9.30
2018-04-26T23:41:28.241Z,9.20
2018-04-26T23:43:55.692Z,9.00
2018-04-26T23:46:23.146Z,9.00
2018-04-26T23:48:50.595Z,8.90
2018-04-26T23:51:18.823Z,8.80
2018-04-26T23:53:46.269Z,8.80
2018-04-26T23:56:13.721Z,8.80
2018-04-26T23:58:41.180Z,8.80
